createdAt,value
2022-09-05T00:00:19.411Z,100579.69
2022-09-05T00:03:17.190Z,100575.22
2022-09-05T00:06:02.223Z,100573.53
2022-09-05T00:08:44.632Z,100564.97
2022-09-05T00:11:40.810Z,100572.00
2022-09-05T00:15:14.361Z,100563.34
2022-09-05T00:17:48.750Z,100575.72
2022-09-05T00:24:19.902Z,100568.88
2022-09-05T00:24:30.500Z,100572.78
2022-09-05T00:26:38.246Z,100578.06
2022-09-05T00:31:05.480Z,100576.53
2022-09-05T00:32:46.947Z,100567.78
2022-09-05T00:35:35.609Z,100571.72
2022-09-05T00:38:15.142Z,100563.06
2022-09-05T00:40:47.005Z,100573.69
2022-09-05T00:43:20.466Z,100571.66
2022-09-05T00:45:58.352Z,100577.13
2022-09-05T00:48:36.774Z,100566.84
2022-09-05T00:51:21.002Z,100572.13
2022-09-05T00:54:32.664Z,100573.06
2022-09-05T00:57:40.446Z,100570.66
2022-09-05T01:00:18.147Z,100569.88
2022-09-05T01:03:10.091Z,100573.53
2022-09-05T01:06:03.311Z,100566.72
2022-09-05T01:09:10.794Z,100571.00
2022-09-05T01:11:51.692Z,100557.88
2022-09-05T01:14:40.431Z,100560.69
2022-09-05T01:17:39.779Z,100560.81
2022-09-05T01:20:38.296Z,100564.22
2022-09-05T01:23:37.109Z,100557.47
2022-09-05T01:26:36.167Z,100561.97
2022-09-05T01:29:19.405Z,100554.28
2022-09-05T01:32:10.536Z,100556.06
2022-09-05T01:34:55.729Z,100558.13
2022-09-05T01:37:34.331Z,100553.00
2022-09-05T01:40:17.648Z,100560.53
2022-09-05T01:43:05.884Z,100557.06
2022-09-05T01:45:50.737Z,100556.91
2022-09-05T01:48:33.879Z,100557.72
2022-09-05T01:51:28.268Z,100550.22
2022-09-05T01:54:24.105Z,100550.09
2022-09-05T01:57:09.067Z,100550.03
2022-09-05T01:59:47.302Z,100556.09
2022-09-05T02:02:33.511Z,100550.94
2022-09-05T02:05:51.107Z,100541.50
2022-09-05T02:08:36.132Z,100549.44
2022-09-05T02:11:08.184Z,100536.44
2022-09-05T02:14:00.648Z,100534.84
2022-09-05T02:16:41.665Z,100534.03
2022-09-05T02:19:19.040Z,100528.78
2022-09-05T02:22:00.189Z,100531.19
2022-09-05T02:24:39.599Z,100532.22
2022-09-05T02:27:53.588Z,100533.16
2022-09-05T02:30:14.862Z,100535.06
2022-09-05T02:32:59.719Z,100534.25
2022-09-05T02:35:41.016Z,100529.00
2022-09-05T02:39:09.133Z,100528.56
2022-09-05T02:45:17.257Z,100524.91
2022-09-05T02:45:19.648Z,100528.97
2022-09-05T02:47:06.009Z,100522.19
2022-09-05T02:52:30.676Z,100521.38
2022-09-05T02:57:29.248Z,100513.69
2022-09-05T02:57:33.268Z,100527.44
2022-09-05T02:59:09.532Z,100534.47
2022-09-05T03:02:09.341Z,100533.03
2022-09-05T03:05:05.021Z,100532.44
2022-09-05T03:08:07.493Z,100535.03
2022-09-05T03:11:37.711Z,100535.41
2022-09-05T03:14:58.822Z,100542.94
2022-09-05T03:18:22.740Z,100548.09
2022-09-05T03:21:38.304Z,100542.94
2022-09-05T03:25:02.493Z,100542.16
2022-09-05T03:28:29.801Z,100535.41
2022-09-05T03:31:23.864Z,100538.84
2022-09-05T03:34:28.470Z,100539.78
2022-09-05T03:37:44.040Z,100537.03
2022-09-05T03:40:51.492Z,100546.38
2022-09-05T03:43:55.218Z,100545.41
2022-09-05T03:46:39.856Z,100541.53
2022-09-05T03:55:45.402Z,100543.34
2022-09-05T03:57:12.481Z,100544.16
2022-09-05T03:57:24.260Z,100539.66
2022-09-05T03:59:51.888Z,100536.28
2022-09-05T04:06:31.411Z,100549.25
2022-09-05T04:08:11.330Z,100534.50
2022-09-05T04:08:29.747Z,100535.44
2022-09-05T04:11:10.682Z,100536.16
2022-09-05T04:13:47.201Z,100526.50
2022-09-05T04:16:19.711Z,100531.25
2022-09-05T04:18:54.107Z,100539.94
2022-09-05T04:21:28.089Z,100532.22
2022-09-05T04:24:07.606Z,100539.94
2022-09-05T04:27:21.482Z,100550.13
2022-09-05T04:30:01.762Z,100539.78
2022-09-05T04:32:47.150Z,100552.75
2022-09-05T04:35:31.235Z,100549.69
2022-09-05T04:38:12.480Z,100553.28
2022-09-05T04:40:51.786Z,100556.19
2022-09-05T04:43:32.478Z,100557.91
2022-09-05T04:46:18.847Z,100555.56
2022-09-05T04:48:58.182Z,100560.25
2022-09-05T04:52:00.839Z,100561.88
2022-09-05T04:54:42.725Z,100562.28
2022-09-05T04:57:21.854Z,100566.56
2022-09-05T05:04:23.718Z,100572.59
2022-09-05T05:06:12.390Z,100565.03
2022-09-05T05:06:12.391Z,100569.53
2022-09-05T05:08:51.792Z,100574.72
2022-09-05T05:17:54.474Z,100572.34
2022-09-05T05:18:02.615Z,100579.50
2022-09-05T05:18:10.905Z,100573.34
2022-09-05T05:20:42.224Z,100577.59
2022-09-05T05:23:17.014Z,100580.22
2022-09-05T05:25:51.521Z,100580.91
2022-09-05T05:28:28.598Z,100586.25
2022-09-05T05:31:01.467Z,100592.13
2022-09-05T05:33:35.831Z,100591.03
2022-09-05T05:36:08.528Z,100589.16
2022-09-05T05:38:46.573Z,100586.88
2022-09-05T05:41:21.566Z,100593.91
2022-09-05T05:43:51.371Z,100594.69
2022-09-05T05:46:31.969Z,100598.06
2022-09-05T05:49:31.983Z,100593.53
2022-09-05T05:52:39.056Z,100602.66
2022-09-05T05:55:51.465Z,100604.22
2022-09-05T05:58:37.765Z,100599.63
2022-09-05T06:02:09.642Z,100609.69
2022-09-05T06:05:17.834Z,100611.22
2022-09-05T06:10:00.424Z,100608.47
2022-09-05T06:15:00.161Z,100613.28
2022-09-05T06:15:10.698Z,100607.03
2022-09-05T06:18:16.138Z,100610.41
2022-09-05T06:22:10.393Z,100616.13
2022-09-05T06:25:27.252Z,100610.53
2022-09-05T06:28:20.080Z,100616.22
2022-09-05T06:31:30.764Z,100611.28
2022-09-05T06:34:33.297Z,100616.59
2022-09-05T06:37:14.055Z,100615.63
2022-09-05T06:40:04.675Z,100610.16
2022-09-05T06:42:51.416Z,100614.09
2022-09-05T06:45:38.277Z,100620.91
2022-09-05T06:48:24.862Z,100621.81
2022-09-05T06:51:44.896Z,100623.97
2022-09-05T06:54:59.894Z,100615.00
2022-09-05T06:58:15.257Z,100614.22
2022-09-05T07:00:48.605Z,100611.69
2022-09-05T07:03:40.179Z,100610.13
2022-09-05T07:06:19.664Z,100611.56
2022-09-05T07:09:02.942Z,100614.00
2022-09-05T07:11:42.643Z,100614.91
2022-09-05T07:14:22.235Z,100608.47
2022-09-05T07:16:55.295Z,100605.81
2022-09-05T07:19:31.657Z,100609.50
2022-09-05T07:22:29.356Z,100605.13
2022-09-05T07:25:09.429Z,100621.84
2022-09-05T07:28:26.845Z,100620.78
2022-09-05T07:30:36.992Z,100624.69
2022-09-05T07:33:06.256Z,100623.63
2022-09-05T07:35:42.001Z,100624.19
2022-09-05T07:38:18.683Z,100620.47
2022-09-05T07:40:53.515Z,100625.25
2022-09-05T07:43:27.617Z,100625.81
2022-09-05T07:46:13.348Z,100629.22
2022-09-05T07:48:47.388Z,100626.16
2022-09-05T07:56:48.824Z,100622.63
2022-09-05T07:57:08.250Z,100631.00
2022-09-05T07:57:30.009Z,100626.75
2022-09-05T08:00:26.057Z,100628.63
2022-09-05T08:03:02.009Z,100632.38
2022-09-05T08:05:40.331Z,100630.84
2022-09-05T08:08:13.198Z,100632.00
2022-09-05T08:11:24.253Z,100624.31
2022-09-05T08:14:02.364Z,100626.28
2022-09-05T08:16:46.266Z,100637.41
2022-09-05T08:19:54.368Z,100636.13
2022-09-05T08:22:31.967Z,100629.81
2022-09-05T08:25:05.369Z,100626.78
2022-09-05T08:27:51.956Z,100624.34
2022-09-05T08:30:25.550Z,100621.69
2022-09-05T08:33:10.831Z,100616.00
2022-09-05T08:35:45.868Z,100613.13
2022-09-05T08:38:15.838Z,100609.72
2022-09-05T08:40:56.115Z,100616.25
2022-09-05T08:46:35.531Z,100624.03
2022-09-05T08:46:42.190Z,100619.31
2022-09-05T08:50:04.889Z,100617.06
2022-09-05T08:52:52.126Z,100606.56
2022-09-05T08:55:36.650Z,100600.28
2022-09-05T08:58:37.584Z,100608.03
2022-09-05T09:01:19.295Z,100601.59
2022-09-05T09:04:11.440Z,100593.06
2022-09-05T09:07:32.327Z,100593.53
2022-09-05T09:10:09.817Z,100594.13
2022-09-05T09:13:22.536Z,100588.00
2022-09-05T09:16:04.701Z,100595.41
2022-09-05T09:19:09.680Z,100594.53
2022-09-05T09:21:43.843Z,100578.38
2022-09-05T09:24:32.037Z,100577.34
2022-09-05T09:27:07.759Z,100582.81
2022-09-05T09:29:41.526Z,100582.78
2022-09-05T09:32:14.259Z,100583.56
2022-09-05T09:34:56.582Z,100584.38
2022-09-05T09:38:14.828Z,100587.44
2022-09-05T09:41:14.795Z,100582.53
2022-09-05T09:44:53.465Z,100582.97
2022-09-05T09:47:46.066Z,100582.19
2022-09-05T09:50:27.662Z,100586.31
2022-09-05T09:53:22.038Z,100582.56
2022-09-05T09:56:41.866Z,100585.91
2022-09-05T09:59:35.448Z,100575.63
2022-09-05T10:04:51.305Z,100577.19
2022-09-05T10:10:45.153Z,100572.44
2022-09-05T10:10:49.902Z,100565.75
2022-09-05T10:13:20.703Z,100561.81
2022-09-05T10:16:46.131Z,100560.75
2022-09-05T10:20:10.413Z,100549.47
2022-09-05T10:23:07.482Z,100556.41
2022-09-05T10:26:22.136Z,100552.41
2022-09-05T10:29:15.724Z,100557.53
2022-09-05T10:35:11.771Z,100554.91
2022-09-05T10:35:14.307Z,100557.69
2022-09-05T10:37:54.911Z,100547.00
2022-09-05T10:40:26.618Z,100544.50
2022-09-05T10:43:00.827Z,100544.19
2022-09-05T10:45:44.164Z,100535.31
2022-09-05T10:48:24.487Z,100530.34
2022-09-05T10:51:01.646Z,100524.03
2022-09-05T10:53:40.260Z,100520.22
2022-09-05T10:56:14.910Z,100526.59
2022-09-05T11:01:43.181Z,100517.41
2022-09-05T11:02:23.065Z,100515.78
2022-09-05T11:05:08.158Z,100509.53
2022-09-05T11:07:42.845Z,100499.97
2022-09-05T11:10:17.334Z,100494.81
2022-09-05T11:13:17.211Z,100487.34
2022-09-05T11:16:03.712Z,100499.34
2022-09-05T11:18:57.249Z,100489.09
2022-09-05T11:22:04.059Z,100489.22
2022-09-05T11:24:51.115Z,100487.78
2022-09-05T11:27:33.243Z,100486.44
2022-09-05T11:30:07.023Z,100475.78
2022-09-05T11:39:51.369Z,100470.81
2022-09-05T11:39:58.407Z,100483.47
2022-09-05T11:40:31.292Z,100477.78
2022-09-05T11:43:14.091Z,100473.66
2022-09-05T11:46:34.585Z,100476.31
2022-09-05T11:49:45.382Z,100468.88
2022-09-05T11:52:55.095Z,100469.88
2022-09-05T11:56:08.530Z,100464.91
2022-09-05T11:59:33.643Z,100464.31
2022-09-05T12:02:34.554Z,100465.09
2022-09-05T12:05:49.080Z,100462.56
2022-09-05T12:08:32.518Z,100455.16
2022-09-05T12:11:22.495Z,100451.19
2022-09-05T12:14:13.697Z,100458.38
2022-09-05T12:17:10.206Z,100447.00
2022-09-05T12:19:54.770Z,100443.31
2022-09-05T12:22:31.598Z,100435.22
2022-09-05T12:27:41.392Z,100439.31
2022-09-05T12:29:26.735Z,100426.72
2022-09-05T12:32:36.478Z,100428.19
2022-09-05T12:36:07.238Z,100432.03
2022-09-05T12:40:53.322Z,100427.88
2022-09-05T12:41:37.434Z,100426.81
2022-09-05T12:44:39.118Z,100417.88
2022-09-05T12:45:59.568Z,100411.78
2022-09-05T12:48:38.708Z,100416.53
2022-09-05T12:51:18.050Z,100418.22
2022-09-05T12:54:09.400Z,100411.97
2022-09-05T13:01:34.973Z,100402.38
2022-09-05T13:03:05.379Z,100401.44
2022-09-05T13:03:08.605Z,100392.28
2022-09-05T13:05:58.737Z,100400.59
2022-09-05T13:08:40.005Z,100385.09
2022-09-05T13:14:49.343Z,100390.81
2022-09-05T13:14:54.649Z,100384.63
2022-09-05T13:16:57.046Z,100386.50
2022-09-05T13:19:37.348Z,100383.84
2022-09-05T13:22:08.690Z,100387.00
2022-09-05T13:24:41.464Z,100368.16
2022-09-05T13:27:15.058Z,100370.91
2022-09-05T13:30:51.833Z,100366.91
2022-09-05T13:37:54.634Z,100363.13
2022-09-05T13:38:06.302Z,100369.47
2022-09-05T13:38:50.298Z,100370.91
2022-09-05T13:41:28.334Z,100362.50
2022-09-05T13:44:00.258Z,100370.16
2022-09-05T13:46:58.876Z,100353.09
2022-09-05T13:49:37.204Z,100352.72
2022-09-05T13:52:28.037Z,100364.81
2022-09-05T13:55:13.897Z,100362.75
2022-09-05T13:57:47.392Z,100351.50
2022-09-05T14:00:50.993Z,100352.06
2022-09-05T14:08:23.091Z,100344.41
2022-09-05T14:11:45.036Z,100341.19
2022-09-05T14:17:51.120Z,100342.75
2022-09-05T14:20:38.306Z,100344.81
2022-09-05T14:23:15.439Z,100340.91
2022-09-05T14:25:49.927Z,100343.22
2022-09-05T14:28:27.705Z,100339.34
2022-09-05T14:32:59.025Z,100343.72
2022-09-05T14:37:41.132Z,100328.22
2022-09-05T14:37:44.462Z,100332.69
2022-09-05T14:41:16.612Z,100321.97
2022-09-05T14:44:37.824Z,100329.53
2022-09-05T14:48:02.516Z,100323.78
2022-09-05T14:50:56.457Z,100320.38
2022-09-05T14:57:02.104Z,100319.84
2022-09-05T15:02:43.609Z,100325.72
2022-09-05T15:02:51.203Z,100318.50
2022-09-05T15:05:21.731Z,100313.78
2022-09-05T15:07:58.658Z,100320.31
2022-09-05T15:12:19.834Z,100314.94
2022-09-05T15:13:25.854Z,100311.97
2022-09-05T15:16:06.890Z,100306.09
2022-09-05T15:18:39.001Z,100307.00
2022-09-05T15:21:33.243Z,100302.16
2022-09-05T15:24:17.167Z,100292.34
2022-09-05T15:26:52.983Z,100296.78
2022-09-05T15:29:27.037Z,100290.00
2022-09-05T15:32:15.174Z,100287.91
2022-09-05T15:34:43.686Z,100289.72
2022-09-05T15:37:29.829Z,100286.75
2022-09-05T15:40:23.753Z,100279.31
2022-09-05T15:42:56.987Z,100272.94
2022-09-05T15:45:31.669Z,100276.34
2022-09-05T15:48:09.425Z,100273.25
2022-09-05T15:50:45.820Z,100274.66
2022-09-05T15:53:23.441Z,100272.75
2022-09-05T15:56:00.910Z,100267.31
2022-09-05T15:58:53.085Z,100262.41
2022-09-05T16:01:30.511Z,100258.66
2022-09-05T16:07:04.116Z,100265.94
2022-09-05T16:10:37.268Z,100264.06
2022-09-05T16:10:39.375Z,100257.28
2022-09-05T16:12:52.842Z,100259.34
2022-09-05T16:17:33.678Z,100255.72
2022-09-05T16:23:19.449Z,100255.63
2022-09-05T16:23:25.662Z,100247.41
2022-09-05T16:24:06.424Z,100252.94
2022-09-05T16:26:42.772Z,100254.47
2022-09-05T16:29:23.861Z,100246.34
2022-09-05T16:32:11.889Z,100239.53
2022-09-05T16:34:54.205Z,100237.03
2022-09-05T16:37:30.039Z,100235.47
2022-09-05T16:40:08.011Z,100242.69
2022-09-05T16:42:47.122Z,100238.00
2022-09-05T16:45:31.220Z,100241.22
2022-09-05T16:48:14.040Z,100232.97
2022-09-05T16:50:50.569Z,100240.59
2022-09-05T16:53:58.468Z,100231.22
2022-09-05T16:56:24.186Z,100237.16
2022-09-05T16:58:56.358Z,100230.19
2022-09-05T17:01:54.873Z,100222.47
2022-09-05T17:05:04.757Z,100218.78
2022-09-05T17:08:03.608Z,100218.09
2022-09-05T17:10:44.309Z,100218.19
2022-09-05T17:13:41.508Z,100218.41
2022-09-05T17:16:20.901Z,100214.97
2022-09-05T17:18:52.704Z,100213.50
2022-09-05T17:21:30.015Z,100206.47
2022-09-05T17:29:16.841Z,100210.13
2022-09-05T17:29:25.746Z,100203.53
2022-09-05T17:33:00.621Z,100203.75
2022-09-05T17:35:42.959Z,100203.72
2022-09-05T17:39:06.304Z,100200.53
2022-09-05T17:41:57.682Z,100200.75
2022-09-05T17:44:31.150Z,100197.03
2022-09-05T17:47:15.227Z,100201.59
2022-09-05T17:49:46.209Z,100194.94
2022-09-05T17:52:24.803Z,100201.41
2022-09-05T17:54:56.352Z,100204.47
2022-09-05T17:57:41.286Z,100208.09
2022-09-05T18:01:00.958Z,100210.97
2022-09-05T18:04:15.853Z,100214.78
2022-09-05T18:07:00.373Z,100215.66
2022-09-05T18:10:07.621Z,100221.16
2022-09-05T18:13:13.979Z,100212.88
2022-09-05T18:16:10.959Z,100222.03
2022-09-05T18:19:28.146Z,100225.63
2022-09-05T18:21:50.937Z,100230.38
2022-09-05T18:27:37.836Z,100243.88
2022-09-05T18:33:55.601Z,100232.94
2022-09-05T18:36:34.670Z,100238.56
2022-09-05T18:39:48.494Z,100243.97
2022-09-05T18:42:26.397Z,100245.34
2022-09-05T18:45:15.502Z,100250.03
2022-09-05T18:47:57.203Z,100243.34
2022-09-05T18:50:32.428Z,100242.84
2022-09-05T18:53:10.497Z,100250.25
2022-09-05T18:56:13.711Z,100257.56
2022-09-05T18:58:52.831Z,100256.09
2022-09-05T19:01:28.830Z,100260.72
2022-09-05T19:04:03.468Z,100257.44
2022-09-05T19:06:37.905Z,100257.56
2022-09-05T19:09:11.278Z,100253.31
2022-09-05T19:11:53.515Z,100257.28
2022-09-05T19:14:42.315Z,100250.41
2022-09-05T19:17:19.368Z,100253.38
2022-09-05T19:20:33.384Z,100244.75
2022-09-05T19:23:09.970Z,100246.66
2022-09-05T19:25:43.886Z,100240.81
2022-09-05T19:33:50.483Z,100243.53
2022-09-05T19:36:52.702Z,100242.81
2022-09-05T19:37:06.831Z,100237.03
2022-09-05T19:37:27.480Z,100237.44
2022-09-05T19:44:41.334Z,100237.66
2022-09-05T19:47:34.076Z,100237.84
2022-09-05T19:47:39.306Z,100229.22
2022-09-05T19:48:26.836Z,100225.06
2022-09-05T19:50:56.863Z,100221.66
2022-09-05T19:53:26.766Z,100214.66
2022-09-05T19:55:55.452Z,100226.41
2022-09-05T19:58:25.081Z,100221.59
2022-09-05T20:01:05.364Z,100222.00
2022-09-05T20:03:39.488Z,100212.34
2022-09-05T20:06:26.794Z,100214.97
2022-09-05T20:09:19.714Z,100223.22
2022-09-05T20:11:50.626Z,100210.19
2022-09-05T20:14:22.974Z,100216.41
2022-09-05T20:16:55.931Z,100211.50
2022-09-05T20:19:34.070Z,100206.41
2022-09-05T20:22:47.029Z,100209.19
2022-09-05T20:25:34.737Z,100221.66
2022-09-05T20:28:09.604Z,100219.09
2022-09-05T20:30:42.766Z,100218.69
2022-09-05T20:33:20.309Z,100211.66
2022-09-05T20:39:32.719Z,100217.97
2022-09-05T20:43:15.284Z,100214.66
2022-09-05T20:43:25.329Z,100212.94
2022-09-05T20:44:24.818Z,100224.31
2022-09-05T20:52:13.849Z,100214.75
2022-09-05T20:54:16.968Z,100207.94
2022-09-05T20:54:22.583Z,100208.28
2022-09-05T20:55:42.376Z,100222.47
2022-09-05T20:58:15.760Z,100219.91
2022-09-05T21:01:20.176Z,100221.81
2022-09-05T21:03:40.939Z,100212.91
2022-09-05T21:06:33.973Z,100221.13
2022-09-05T21:09:22.535Z,100226.78
2022-09-05T21:11:55.496Z,100228.66
2022-09-05T21:14:28.621Z,100229.63
2022-09-05T21:17:04.593Z,100234.91
2022-09-05T21:19:53.160Z,100233.41
2022-09-05T21:22:24.715Z,100236.13
2022-09-05T21:25:43.837Z,100233.59
2022-09-05T21:28:36.282Z,100239.03
2022-09-05T21:31:16.101Z,100234.88
2022-09-05T21:33:46.373Z,100234.09
2022-09-05T21:36:16.686Z,100229.84
2022-09-05T21:38:45.444Z,100226.34
2022-09-05T21:41:17.815Z,100230.88
2022-09-05T21:47:34.207Z,100232.78
2022-09-05T21:47:41.220Z,100232.97
2022-09-05T21:49:31.329Z,100228.59
2022-09-05T21:52:04.284Z,100229.53
2022-09-05T21:58:44.253Z,100235.88
2022-09-05T21:59:24.478Z,100235.03
2022-09-05T22:00:16.200Z,100236.72
2022-09-05T22:02:49.806Z,100232.56
2022-09-05T22:05:20.196Z,100234.44
2022-09-05T22:07:53.374Z,100220.56
2022-09-05T22:10:22.473Z,100223.25
2022-09-05T22:13:05.014Z,100213.81
2022-09-05T22:15:33.510Z,100214.72
2022-09-05T22:18:26.973Z,100209.44
2022-09-05T22:21:29.609Z,100201.78
2022-09-05T22:23:45.340Z,100198.50
2022-09-05T22:26:15.702Z,100190.56
2022-09-05T22:28:48.900Z,100195.16
2022-09-05T22:31:17.837Z,100187.50
2022-09-05T22:33:50.845Z,100189.44
2022-09-05T22:36:19.959Z,100189.56
2022-09-05T22:38:48.394Z,100182.72
2022-09-05T22:41:17.158Z,100178.00
2022-09-05T22:43:46.358Z,100176.47
2022-09-05T22:46:16.595Z,100184.47
2022-09-05T22:48:45.132Z,100189.09
2022-09-05T22:51:16.569Z,100188.47
2022-09-05T22:53:45.142Z,100194.13
2022-09-05T22:56:13.603Z,100189.69
2022-09-05T22:58:44.942Z,100192.31
2022-09-05T23:01:13.708Z,100186.19
2022-09-05T23:03:42.186Z,100186.09
2022-09-05T23:06:11.943Z,100187.03
2022-09-05T23:08:41.749Z,100182.00
2022-09-05T23:11:12.246Z,100181.34
2022-09-05T23:13:41.430Z,100181.63
2022-09-05T23:16:10.879Z,100172.16
2022-09-05T23:18:39.592Z,100175.72
2022-09-05T23:21:10.355Z,100185.28
2022-09-05T23:23:39.793Z,100194.88
2022-09-05T23:26:13.652Z,100194.94
2022-09-05T23:28:43.785Z,100190.72
2022-09-05T23:31:13.488Z,100201.34
2022-09-05T23:33:42.906Z,100195.13
2022-09-05T23:36:14.110Z,100195.13
2022-09-05T23:38:43.493Z,100191.75
2022-09-05T23:41:15.898Z,100183.97
2022-09-05T23:43:44.389Z,100187.53
2022-09-05T23:46:12.926Z,100187.38
2022-09-05T23:48:41.701Z,100196.00
2022-09-05T23:51:12.115Z,100190.03
2022-09-05T23:53:41.496Z,100193.66
2022-09-05T23:56:12.598Z,100172.63
2022-09-05T23:58:41.476Z,100171.69
